sensor_id;sensor_type;location;lat;lon;timestamp;P1;durP1;ratioP1;P2;durP2;ratioP2
62572;SDS011;48626;51.678;5.806;2024-03-07T00:00:09;38.03;;;19.85;;
62572;SDS011;48626;51.678;5.806;2024-03-07T00:02:45;44.38;;;20.42;;
62572;SDS011;48626;51.678;5.806;2024-03-07T00:05:15;45.13;;;20.08;;
62572;SDS011;48626;51.678;5.806;2024-03-07T00:07:42;61.78;;;22.17;;
62572;SDS011;48626;51.678;5.806;2024-03-07T00:10:10;45.95;;;21.10;;
62572;SDS011;48626;51.678;5.806;2024-03-07T00:12:37;41.50;;;20.38;;
62572;SDS011;48626;51.678;5.806;2024-03-07T00:15:06;38.97;;;20.08;;
62572;SDS011;48626;51.678;5.806;2024-03-07T00:17:32;46.92;;;21.02;;
62572;SDS011;48626;51.678;5.806;2024-03-07T00:19:59;44.80;;;21.88;;
62572;SDS011;48626;51.678;5.806;2024-03-07T00:22:25;41.35;;;20.13;;
62572;SDS011;48626;51.678;5.806;2024-03-07T00:24:54;38.83;;;19.83;;
62572;SDS011;48626;51.678;5.806;2024-03-07T00:27:20;41.97;;;20.73;;
62572;SDS011;48626;51.678;5.806;2024-03-07T00:29:47;45.10;;;21.13;;
62572;SDS011;48626;51.678;5.806;2024-03-07T00:32:18;40.08;;;20.08;;
62572;SDS011;48626;51.678;5.806;2024-03-07T00:34:45;45.53;;;19.85;;
62572;SDS011;48626;51.678;5.806;2024-03-07T00:37:11;45.55;;;21.35;;
62572;SDS011;48626;51.678;5.806;2024-03-07T03:07:39;44.00;;;20.52;;
62572;SDS011;48626;51.678;5.806;2024-03-07T03:10:06;45.20;;;20.23;;
62572;SDS011;48626;51.678;5.806;2024-03-07T03:12:35;47.83;;;22.23;;
62572;SDS011;48626;51.678;5.806;2024-03-07T03:15:04;41.42;;;20.48;;
62572;SDS011;48626;51.678;5.806;2024-03-07T03:17:31;50.08;;;21.65;;
62572;SDS011;48626;51.678;5.806;2024-03-07T03:19:57;47.92;;;21.42;;
62572;SDS011;48626;51.678;5.806;2024-03-07T03:22:23;53.10;;;22.40;;
62572;SDS011;48626;51.678;5.806;2024-03-07T03:24:48;50.30;;;21.85;;
62572;SDS011;48626;51.678;5.806;2024-03-07T03:27:14;44.70;;;21.40;;
62572;SDS011;48626;51.678;5.806;2024-03-07T03:29:40;46.63;;;22.33;;
62572;SDS011;48626;51.678;5.806;2024-03-07T03:32:05;51.70;;;21.77;;
62572;SDS011;48626;51.678;5.806;2024-03-07T03:34:32;54.17;;;22.60;;
62572;SDS011;48626;51.678;5.806;2024-03-07T03:36:58;49.45;;;22.52;;
62572;SDS011;48626;51.678;5.806;2024-03-07T03:39:24;50.72;;;23.13;;
62572;SDS011;48626;51.678;5.806;2024-03-07T03:41:52;41.08;;;21.08;;
62572;SDS011;48626;51.678;5.806;2024-03-07T03:44:17;46.60;;;21.95;;
62572;SDS011;48626;51.678;5.806;2024-03-07T03:46:43;49.42;;;21.80;;
62572;SDS011;48626;51.678;5.806;2024-03-07T03:49:09;45.13;;;22.63;;
62572;SDS011;48626;51.678;5.806;2024-03-07T03:51:35;47.05;;;21.23;;
62572;SDS011;48626;51.678;5.806;2024-03-07T03:54:01;47.30;;;21.38;;
62572;SDS011;48626;51.678;5.806;2024-03-07T03:56:27;48.40;;;22.58;;
62572;SDS011;48626;51.678;5.806;2024-03-07T03:58:53;52.65;;;21.75;;
62572;SDS011;48626;51.678;5.806;2024-03-07T04:01:19;44.20;;;22.67;;
62572;SDS011;48626;51.678;5.806;2024-03-07T04:03:44;48.55;;;22.63;;
62572;SDS011;48626;51.678;5.806;2024-03-07T04:06:11;41.28;;;20.08;;
62572;SDS011;48626;51.678;5.806;2024-03-07T04:08:37;50.03;;;23.23;;
62572;SDS011;48626;51.678;5.806;2024-03-07T04:11:06;45.78;;;23.33;;
62572;SDS011;48626;51.678;5.806;2024-03-07T04:13:35;46.03;;;22.92;;
62572;SDS011;48626;51.678;5.806;2024-03-07T04:16:00;45.08;;;22.23;;
62572;SDS011;48626;51.678;5.806;2024-03-07T04:18:26;51.58;;;23.27;;
62572;SDS011;48626;51.678;5.806;2024-03-07T04:20:52;45.58;;;22.70;;
62572;SDS011;48626;51.678;5.806;2024-03-07T04:23:17;50.47;;;24.30;;
62572;SDS011;48626;51.678;5.806;2024-03-07T04:25:43;55.13;;;22.55;;
62572;SDS011;48626;51.678;5.806;2024-03-07T04:28:09;57.33;;;22.73;;
62572;SDS011;48626;51.678;5.806;2024-03-07T04:30:35;49.70;;;22.85;;
62572;SDS011;48626;51.678;5.806;2024-03-07T04:33:01;44.05;;;21.75;;
62572;SDS011;48626;51.678;5.806;2024-03-07T04:35:26;54.88;;;23.02;;
62572;SDS011;48626;51.678;5.806;2024-03-07T04:37:52;52.20;;;23.52;;
62572;SDS011;48626;51.678;5.806;2024-03-07T04:40:18;50.67;;;23.23;;
62572;SDS011;48626;51.678;5.806;2024-03-07T04:42:44;49.72;;;22.98;;
62572;SDS011;48626;51.678;5.806;2024-03-07T04:45:16;46.08;;;22.30;;
62572;SDS011;48626;51.678;5.806;2024-03-07T04:47:43;49.13;;;23.67;;
62572;SDS011;48626;51.678;5.806;2024-03-07T04:50:12;53.50;;;23.48;;
62572;SDS011;48626;51.678;5.806;2024-03-07T04:52:42;51.13;;;23.45;;
62572;SDS011;48626;51.678;5.806;2024-03-07T04:55:08;48.80;;;22.00;;
62572;SDS011;48626;51.678;5.806;2024-03-07T04:57:38;50.08;;;22.80;;
62572;SDS011;48626;51.678;5.806;2024-03-07T05:00:09;46.45;;;22.92;;
62572;SDS011;48626;51.678;5.806;2024-03-07T05:02:42;51.35;;;23.05;;
62572;SDS011;48626;51.678;5.806;2024-03-07T05:05:08;47.97;;;21.98;;
62572;SDS011;48626;51.678;5.806;2024-03-07T05:07:34;49.83;;;22.15;;
62572;SDS011;48626;51.678;5.806;2024-03-07T05:10:03;48.75;;;22.48;;
62572;SDS011;48626;51.678;5.806;2024-03-07T05:12:30;55.20;;;22.67;;
62572;SDS011;48626;51.678;5.806;2024-03-07T05:14:56;46.22;;;22.27;;
62572;SDS011;48626;51.678;5.806;2024-03-07T05:17:22;57.65;;;21.95;;
62572;SDS011;48626;51.678;5.806;2024-03-07T05:19:47;42.17;;;21.42;;
62572;SDS011;48626;51.678;5.806;2024-03-07T05:22:14;45.90;;;22.27;;
62572;SDS011;48626;51.678;5.806;2024-03-07T05:24:44;47.25;;;22.63;;
62572;SDS011;48626;51.678;5.806;2024-03-07T05:27:10;51.85;;;21.63;;
62572;SDS011;48626;51.678;5.806;2024-03-07T05:29:39;42.35;;;20.48;;
62572;SDS011;48626;51.678;5.806;2024-03-07T05:32:23;47.80;;;21.75;;
62572;SDS011;48626;51.678;5.806;2024-03-07T05:34:50;42.92;;;20.83;;
62572;SDS011;48626;51.678;5.806;2024-03-07T05:37:18;44.55;;;21.10;;
62572;SDS011;48626;51.678;5.806;2024-03-07T05:39:47;45.28;;;21.30;;
62572;SDS011;48626;51.678;5.806;2024-03-07T05:42:13;43.05;;;21.90;;
62572;SDS011;48626;51.678;5.806;2024-03-07T05:44:40;45.70;;;21.35;;
62572;SDS011;48626;51.678;5.806;2024-03-07T05:47:09;53.30;;;22.70;;
62572;SDS011;48626;51.678;5.806;2024-03-07T05:49:35;43.05;;;20.10;;
62572;SDS011;48626;51.678;5.806;2024-03-07T05:52:04;42.22;;;20.77;;
62572;SDS011;48626;51.678;5.806;2024-03-07T05:54:33;45.15;;;21.85;;
62572;SDS011;48626;51.678;5.806;2024-03-07T05:57:00;47.05;;;21.55;;
62572;SDS011;48626;51.678;5.806;2024-03-07T05:59:25;51.03;;;21.83;;
62572;SDS011;48626;51.678;5.806;2024-03-07T06:01:55;45.53;;;22.02;;
62572;SDS011;48626;51.678;5.806;2024-03-07T06:04:21;60.08;;;22.55;;
62572;SDS011;48626;51.678;5.806;2024-03-07T06:06:47;46.40;;;21.20;;
62572;SDS011;48626;51.678;5.806;2024-03-07T06:09:13;43.90;;;21.58;;
62572;SDS011;48626;51.678;5.806;2024-03-07T06:11:40;47.28;;;22.15;;
62572;SDS011;48626;51.678;5.806;2024-03-07T06:14:09;47.13;;;20.90;;
62572;SDS011;48626;51.678;5.806;2024-03-07T06:16:39;49.50;;;22.33;;
62572;SDS011;48626;51.678;5.806;2024-03-07T06:19:06;46.28;;;21.88;;
62572;SDS011;48626;51.678;5.806;2024-03-07T06:21:33;50.10;;;22.73;;
62572;SDS011;48626;51.678;5.806;2024-03-07T06:24:00;46.83;;;21.02;;
62572;SDS011;48626;51.678;5.806;2024-03-07T06:26:30;44.15;;;20.02;;
62572;SDS011;48626;51.678;5.806;2024-03-07T06:29:06;52.03;;;21.42;;
62572;SDS011;48626;51.678;5.806;2024-03-07T06:31:32;45.20;;;20.98;;
62572;SDS011;48626;51.678;5.806;2024-03-07T06:33:59;47.38;;;21.85;;
62572;SDS011;48626;51.678;5.806;2024-03-07T06:36:25;50.00;;;22.20;;
62572;SDS011;48626;51.678;5.806;2024-03-07T06:38:51;49.50;;;21.83;;
62572;SDS011;48626;51.678;5.806;2024-03-07T06:41:17;45.67;;;20.75;;
62572;SDS011;48626;51.678;5.806;2024-03-07T06:43:45;46.03;;;23.88;;
62572;SDS011;48626;51.678;5.806;2024-03-07T06:46:11;47.15;;;21.20;;
62572;SDS011;48626;51.678;5.806;2024-03-07T06:48:41;47.73;;;22.50;;
62572;SDS011;48626;51.678;5.806;2024-03-07T06:51:07;45.95;;;22.13;;
62572;SDS011;48626;51.678;5.806;2024-03-07T06:53:33;46.65;;;23.05;;
62572;SDS011;48626;51.678;5.806;2024-03-07T06:55:59;46.22;;;21.45;;
62572;SDS011;48626;51.678;5.806;2024-03-07T06:58:26;52.47;;;22.85;;
62572;SDS011;48626;51.678;5.806;2024-03-07T07:00:52;45.70;;;22.45;;
62572;SDS011;48626;51.678;5.806;2024-03-07T07:03:23;49.03;;;21.05;;
62572;SDS011;48626;51.678;5.806;2024-03-07T07:05:49;50.60;;;21.83;;
62572;SDS011;48626;51.678;5.806;2024-03-07T07:08:15;46.97;;;22.20;;
62572;SDS011;48626;51.678;5.806;2024-03-07T07:10:41;50.05;;;23.52;;
62572;SDS011;48626;51.678;5.806;2024-03-07T07:13:07;44.90;;;21.27;;
62572;SDS011;48626;51.678;5.806;2024-03-07T07:15:34;41.67;;;21.38;;
62572;SDS011;48626;51.678;5.806;2024-03-07T07:18:01;45.80;;;22.75;;
62572;SDS011;48626;51.678;5.806;2024-03-07T07:20:27;50.10;;;21.75;;
62572;SDS011;48626;51.678;5.806;2024-03-07T07:22:54;49.28;;;22.08;;
62572;SDS011;48626;51.678;5.806;2024-03-07T07:25:20;42.28;;;21.55;;
62572;SDS011;48626;51.678;5.806;2024-03-07T07:27:50;50.45;;;23.08;;
62572;SDS011;48626;51.678;5.806;2024-03-07T07:30:17;47.67;;;22.67;;
62572;SDS011;48626;51.678;5.806;2024-03-07T07:32:48;52.50;;;23.40;;
62572;SDS011;48626;51.678;5.806;2024-03-07T07:35:14;50.83;;;24.35;;
62572;SDS011;48626;51.678;5.806;2024-03-07T07:37:47;48.25;;;23.00;;
62572;SDS011;48626;51.678;5.806;2024-03-07T07:40:15;42.67;;;22.48;;
62572;SDS011;48626;51.678;5.806;2024-03-07T07:42:47;47.75;;;23.55;;
62572;SDS011;48626;51.678;5.806;2024-03-07T07:45:15;47.17;;;23.25;;
62572;SDS011;48626;51.678;5.806;2024-03-07T07:47:41;45.10;;;23.65;;
62572;SDS011;48626;51.678;5.806;2024-03-07T07:50:08;50.05;;;22.02;;
62572;SDS011;48626;51.678;5.806;2024-03-07T07:52:47;48.22;;;23.45;;
62572;SDS011;48626;51.678;5.806;2024-03-07T07:55:19;39.63;;;21.73;;
62572;SDS011;48626;51.678;5.806;2024-03-07T07:57:50;41.35;;;22.10;;
62572;SDS011;48626;51.678;5.806;2024-03-07T08:00:17;47.05;;;20.95;;
62572;SDS011;48626;51.678;5.806;2024-03-07T08:03:01;41.80;;;19.75;;
62572;SDS011;48626;51.678;5.806;2024-03-07T08:05:31;40.47;;;22.05;;
62572;SDS011;48626;51.678;5.806;2024-03-07T08:07:59;42.60;;;20.10;;
62572;SDS011;48626;51.678;5.806;2024-03-07T08:10:27;50.13;;;22.35;;
62572;SDS011;48626;51.678;5.806;2024-03-07T08:12:57;47.35;;;23.35;;
62572;SDS011;48626;51.678;5.806;2024-03-07T08:15:28;38.65;;;21.08;;
62572;SDS011;48626;51.678;5.806;2024-03-07T08:17:55;47.65;;;22.13;;
62572;SDS011;48626;51.678;5.806;2024-03-07T08:20:22;44.80;;;22.25;;
62572;SDS011;48626;51.678;5.806;2024-03-07T08:22:52;41.95;;;22.88;;
62572;SDS011;48626;51.678;5.806;2024-03-07T08:25:20;42.38;;;23.58;;
62572;SDS011;48626;51.678;5.806;2024-03-07T08:27:48;46.67;;;23.77;;
62572;SDS011;48626;51.678;5.806;2024-03-07T08:30:14;40.65;;;21.40;;
62572;SDS011;48626;51.678;5.806;2024-03-07T08:32:47;48.33;;;22.17;;
62572;SDS011;48626;51.678;5.806;2024-03-07T08:35:14;43.58;;;22.92;;
62572;SDS011;48626;51.678;5.806;2024-03-07T08:37:45;43.80;;;23.00;;
62572;SDS011;48626;51.678;5.806;2024-03-07T08:40:17;46.00;;;23.48;;
62572;SDS011;48626;51.678;5.806;2024-03-07T08:42:47;45.95;;;23.52;;
62572;SDS011;48626;51.678;5.806;2024-03-07T08:47:45;47.15;;;20.35;;
62572;SDS011;48626;51.678;5.806;2024-03-07T08:50:12;43.67;;;20.52;;
62572;SDS011;48626;51.678;5.806;2024-03-07T08:52:38;39.42;;;21.58;;
62572;SDS011;48626;51.678;5.806;2024-03-07T08:55:05;40.33;;;21.38;;
62572;SDS011;48626;51.678;5.806;2024-03-07T08:57:35;40.90;;;22.23;;
62572;SDS011;48626;51.678;5.806;2024-03-07T09:00:04;42.45;;;21.73;;
62572;SDS011;48626;51.678;5.806;2024-03-07T09:02:35;43.35;;;22.67;;
62572;SDS011;48626;51.678;5.806;2024-03-07T09:05:04;50.97;;;24.45;;
62572;SDS011;48626;51.678;5.806;2024-03-07T09:07:31;43.35;;;22.45;;
62572;SDS011;48626;51.678;5.806;2024-03-07T09:09:57;42.40;;;21.80;;
62572;SDS011;48626;51.678;5.806;2024-03-07T09:12:23;43.83;;;23.27;;
62572;SDS011;48626;51.678;5.806;2024-03-07T09:14:50;39.22;;;21.95;;
62572;SDS011;48626;51.678;5.806;2024-03-07T09:17:17;43.05;;;22.27;;
62572;SDS011;48626;51.678;5.806;2024-03-07T09:19:43;40.38;;;20.75;;
62572;SDS011;48626;51.678;5.806;2024-03-07T09:22:09;40.10;;;21.45;;
62572;SDS011;48626;51.678;5.806;2024-03-07T09:24:34;41.22;;;21.40;;
62572;SDS011;48626;51.678;5.806;2024-03-07T09:27:02;57.22;;;23.00;;
62572;SDS011;48626;51.678;5.806;2024-03-07T09:29:29;41.88;;;22.38;;
62572;SDS011;48626;51.678;5.806;2024-03-07T09:31:55;44.15;;;23.02;;
62572;SDS011;48626;51.678;5.806;2024-03-07T09:34:22;39.00;;;20.50;;
62572;SDS011;48626;51.678;5.806;2024-03-07T09:36:49;42.15;;;20.83;;
62572;SDS011;48626;51.678;5.806;2024-03-07T09:39:16;37.33;;;19.35;;
62572;SDS011;48626;51.678;5.806;2024-03-07T09:41:42;36.45;;;20.35;;
62572;SDS011;48626;51.678;5.806;2024-03-07T09:44:12;39.75;;;20.40;;
62572;SDS011;48626;51.678;5.806;2024-03-07T09:46:47;39.78;;;20.60;;
62572;SDS011;48626;51.678;5.806;2024-03-07T09:49:14;41.97;;;22.58;;
62572;SDS011;48626;51.678;5.806;2024-03-07T09:51:40;40.50;;;21.58;;
62572;SDS011;48626;51.678;5.806;2024-03-07T09:54:07;37.28;;;21.52;;
62572;SDS011;48626;51.678;5.806;2024-03-07T09:56:34;37.47;;;20.33;;
62572;SDS011;48626;51.678;5.806;2024-03-07T09:59:03;40.85;;;20.83;;
62572;SDS011;48626;51.678;5.806;2024-03-07T10:03:59;37.78;;;20.55;;
62572;SDS011;48626;51.678;5.806;2024-03-07T10:06:36;38.08;;;21.02;;
62572;SDS011;48626;51.678;5.806;2024-03-07T10:09:03;35.00;;;21.13;;
62572;SDS011;48626;51.678;5.806;2024-03-07T10:11:30;34.08;;;19.50;;
62572;SDS011;48626;51.678;5.806;2024-03-07T10:13:55;36.35;;;19.98;;
62572;SDS011;48626;51.678;5.806;2024-03-07T10:16:21;31.27;;;19.45;;
62572;SDS011;48626;51.678;5.806;2024-03-07T10:18:48;33.08;;;19.20;;
62572;SDS011;48626;51.678;5.806;2024-03-07T10:21:18;32.20;;;18.80;;
62572;SDS011;48626;51.678;5.806;2024-03-07T10:23:49;30.13;;;18.23;;
62572;SDS011;48626;51.678;5.806;2024-03-07T10:26:18;32.13;;;18.40;;
62572;SDS011;48626;51.678;5.806;2024-03-07T10:28:43;31.67;;;18.73;;
62572;SDS011;48626;51.678;5.806;2024-03-07T10:31:09;32.05;;;18.60;;
62572;SDS011;48626;51.678;5.806;2024-03-07T10:33:40;29.17;;;17.85;;
62572;SDS011;48626;51.678;5.806;2024-03-07T10:36:06;29.13;;;17.27;;
62572;SDS011;48626;51.678;5.806;2024-03-07T10:38:38;25.92;;;16.80;;
62572;SDS011;48626;51.678;5.806;2024-03-07T10:41:04;26.15;;;16.20;;
62572;SDS011;48626;51.678;5.806;2024-03-07T10:43:34;28.23;;;15.93;;
62572;SDS011;48626;51.678;5.806;2024-03-07T10:46:05;26.42;;;15.50;;
62572;SDS011;48626;51.678;5.806;2024-03-07T10:48:35;23.10;;;13.98;;
62572;SDS011;48626;51.678;5.806;2024-03-07T10:56:46;22.15;;;14.48;;
62572;SDS011;48626;51.678;5.806;2024-03-07T10:59:19;21.38;;;13.05;;
62572;SDS011;48626;51.678;5.806;2024-03-07T11:04:29;23.25;;;13.15;;
62572;SDS011;48626;51.678;5.806;2024-03-07T11:06:56;22.45;;;13.75;;
62572;SDS011;48626;51.678;5.806;2024-03-07T11:09:24;23.02;;;13.50;;
62572;SDS011;48626;51.678;5.806;2024-03-07T11:11:54;22.30;;;14.52;;
62572;SDS011;48626;51.678;5.806;2024-03-07T11:14:21;24.63;;;13.35;;
62572;SDS011;48626;51.678;5.806;2024-03-07T11:16:48;24.63;;;13.98;;
62572;SDS011;48626;51.678;5.806;2024-03-07T11:19:24;21.85;;;14.13;;
62572;SDS011;48626;51.678;5.806;2024-03-07T11:21:52;22.40;;;13.85;;
62572;SDS011;48626;51.678;5.806;2024-03-07T11:24:26;20.20;;;13.38;;
62572;SDS011;48626;51.678;5.806;2024-03-07T11:26:57;23.08;;;12.98;;
62572;SDS011;48626;51.678;5.806;2024-03-07T11:32:15;20.58;;;12.57;;
62572;SDS011;48626;51.678;5.806;2024-03-07T11:34:42;23.52;;;13.55;;
62572;SDS011;48626;51.678;5.806;2024-03-07T11:37:16;24.20;;;13.30;;
62572;SDS011;48626;51.678;5.806;2024-03-07T11:39:46;19.70;;;13.50;;
62572;SDS011;48626;51.678;5.806;2024-03-07T11:44:46;20.65;;;13.40;;
62572;SDS011;48626;51.678;5.806;2024-03-07T11:47:13;24.30;;;13.40;;
62572;SDS011;48626;51.678;5.806;2024-03-07T11:49:39;19.23;;;12.63;;
62572;SDS011;48626;51.678;5.806;2024-03-07T11:52:05;18.98;;;12.77;;
62572;SDS011;48626;51.678;5.806;2024-03-07T11:54:40;25.25;;;13.45;;
62572;SDS011;48626;51.678;5.806;2024-03-07T11:57:11;21.88;;;12.70;;
62572;SDS011;48626;51.678;5.806;2024-03-07T11:59:40;22.23;;;12.85;;
62572;SDS011;48626;51.678;5.806;2024-03-07T12:02:10;18.52;;;12.25;;
62572;SDS011;48626;51.678;5.806;2024-03-07T12:04:43;64.72;;;13.82;;
62572;SDS011;48626;51.678;5.806;2024-03-07T12:07:09;18.20;;;11.98;;
62572;SDS011;48626;51.678;5.806;2024-03-07T12:09:39;18.60;;;12.18;;
62572;SDS011;48626;51.678;5.806;2024-03-07T12:12:07;19.60;;;12.30;;
62572;SDS011;48626;51.678;5.806;2024-03-07T12:14:34;22.08;;;12.40;;
62572;SDS011;48626;51.678;5.806;2024-03-07T12:17:00;19.50;;;12.32;;
62572;SDS011;48626;51.678;5.806;2024-03-07T12:19:29;19.38;;;12.82;;
62572;SDS011;48626;51.678;5.806;2024-03-07T12:22:02;19.37;;;12.97;;
62572;SDS011;48626;51.678;5.806;2024-03-07T12:24:28;19.05;;;11.95;;
62572;SDS011;48626;51.678;5.806;2024-03-07T12:27:08;108.35;;;14.60;;
62572;SDS011;48626;51.678;5.806;2024-03-07T12:29:35;16.88;;;12.32;;
62572;SDS011;48626;51.678;5.806;2024-03-07T12:32:05;19.73;;;12.48;;
62572;SDS011;48626;51.678;5.806;2024-03-07T12:34:38;17.83;;;11.90;;
62572;SDS011;48626;51.678;5.806;2024-03-07T12:37:10;20.02;;;12.00;;
62572;SDS011;48626;51.678;5.806;2024-03-07T12:39:36;17.33;;;11.50;;
62572;SDS011;48626;51.678;5.806;2024-03-07T12:42:20;17.38;;;12.20;;
62572;SDS011;48626;51.678;5.806;2024-03-07T12:44:46;19.35;;;11.57;;
62572;SDS011;48626;51.678;5.806;2024-03-07T12:47:12;17.17;;;11.50;;
62572;SDS011;48626;51.678;5.806;2024-03-07T12:52:08;17.40;;;11.80;;
62572;SDS011;48626;51.678;5.806;2024-03-07T12:54:37;17.35;;;12.15;;
62572;SDS011;48626;51.678;5.806;2024-03-07T12:57:09;16.95;;;11.95;;
62572;SDS011;48626;51.678;5.806;2024-03-07T12:59:38;21.17;;;12.98;;
62572;SDS011;48626;51.678;5.806;2024-03-07T13:02:07;17.70;;;12.20;;
62572;SDS011;48626;51.678;5.806;2024-03-07T13:04:33;18.63;;;12.60;;
62572;SDS011;48626;51.678;5.806;2024-03-07T13:06:59;18.10;;;11.90;;
62572;SDS011;48626;51.678;5.806;2024-03-07T13:09:26;17.08;;;12.45;;
62572;SDS011;48626;51.678;5.806;2024-03-07T13:11:53;17.13;;;12.05;;
62572;SDS011;48626;51.678;5.806;2024-03-07T13:14:19;16.20;;;12.55;;
62572;SDS011;48626;51.678;5.806;2024-03-07T13:16:45;17.13;;;12.98;;
62572;SDS011;48626;51.678;5.806;2024-03-07T13:19:10;23.70;;;13.20;;
62572;SDS011;48626;51.678;5.806;2024-03-07T13:21:40;18.48;;;12.85;;
62572;SDS011;48626;51.678;5.806;2024-03-07T13:24:06;18.75;;;12.68;;
62572;SDS011;48626;51.678;5.806;2024-03-07T13:26:33;18.80;;;13.05;;
62572;SDS011;48626;51.678;5.806;2024-03-07T13:29:01;16.23;;;12.43;;
62572;SDS011;48626;51.678;5.806;2024-03-07T13:31:30;19.50;;;12.60;;
62572;SDS011;48626;51.678;5.806;2024-03-07T13:33:56;19.70;;;13.27;;
62572;SDS011;48626;51.678;5.806;2024-03-07T13:36:21;23.83;;;12.70;;
62572;SDS011;48626;51.678;5.806;2024-03-07T13:38:53;20.70;;;12.93;;
62572;SDS011;48626;51.678;5.806;2024-03-07T13:41:20;20.30;;;13.02;;
62572;SDS011;48626;51.678;5.806;2024-03-07T13:43:47;22.90;;;13.18;;
62572;SDS011;48626;51.678;5.806;2024-03-07T13:46:13;20.13;;;12.23;;
62572;SDS011;48626;51.678;5.806;2024-03-07T13:48:42;20.50;;;13.67;;
62572;SDS011;48626;51.678;5.806;2024-03-07T13:51:09;23.13;;;14.35;;
62572;SDS011;48626;51.678;5.806;2024-03-07T13:53:35;18.73;;;13.20;;
62572;SDS011;48626;51.678;5.806;2024-03-07T14:01:33;20.55;;;13.20;;
62572;SDS011;48626;51.678;5.806;2024-03-07T14:33:00;23.27;;;12.93;;
62572;SDS011;48626;51.678;5.806;2024-03-07T14:35:35;20.77;;;13.32;;
62572;SDS011;48626;51.678;5.806;2024-03-07T14:40:53;20.67;;;13.40;;
62572;SDS011;48626;51.678;5.806;2024-03-07T14:43:20;20.20;;;12.75;;
62572;SDS011;48626;51.678;5.806;2024-03-07T14:45:47;22.90;;;13.23;;
62572;SDS011;48626;51.678;5.806;2024-03-07T14:48:13;19.88;;;13.02;;
62572;SDS011;48626;51.678;5.806;2024-03-07T14:50:43;21.15;;;13.88;;
62572;SDS011;48626;51.678;5.806;2024-03-07T14:53:11;18.95;;;12.77;;
62572;SDS011;48626;51.678;5.806;2024-03-07T14:55:39;21.90;;;13.65;;
62572;SDS011;48626;51.678;5.806;2024-03-07T14:58:05;19.80;;;13.57;;
62572;SDS011;48626;51.678;5.806;2024-03-07T15:00:34;19.63;;;13.45;;
62572;SDS011;48626;51.678;5.806;2024-03-07T15:03:10;22.42;;;13.43;;
62572;SDS011;48626;51.678;5.806;2024-03-07T15:05:39;22.27;;;13.70;;
62572;SDS011;48626;51.678;5.806;2024-03-07T15:08:06;20.17;;;12.65;;
62572;SDS011;48626;51.678;5.806;2024-03-07T15:10:33;21.98;;;13.80;;
62572;SDS011;48626;51.678;5.806;2024-03-07T15:13:01;22.08;;;13.25;;
62572;SDS011;48626;51.678;5.806;2024-03-07T15:15:28;19.45;;;14.00;;
62572;SDS011;48626;51.678;5.806;2024-03-07T15:17:56;20.27;;;13.55;;
62572;SDS011;48626;51.678;5.806;2024-03-07T15:20:23;19.63;;;13.10;;
62572;SDS011;48626;51.678;5.806;2024-03-07T15:23:00;26.73;;;13.27;;
62572;SDS011;48626;51.678;5.806;2024-03-07T15:25:28;23.33;;;13.50;;
62572;SDS011;48626;51.678;5.806;2024-03-07T15:27:55;21.92;;;13.88;;
62572;SDS011;48626;51.678;5.806;2024-03-07T15:30:22;21.08;;;13.05;;
62572;SDS011;48626;51.678;5.806;2024-03-07T15:32:58;19.55;;;12.65;;
62572;SDS011;48626;51.678;5.806;2024-03-07T15:35:24;20.30;;;13.13;;
62572;SDS011;48626;51.678;5.806;2024-03-07T15:37:51;19.63;;;12.48;;
62572;SDS011;48626;51.678;5.806;2024-03-07T15:40:18;16.35;;;11.93;;
62572;SDS011;48626;51.678;5.806;2024-03-07T15:42:48;16.63;;;11.82;;
62572;SDS011;48626;51.678;5.806;2024-03-07T15:45:19;22.80;;;12.88;;
62572;SDS011;48626;51.678;5.806;2024-03-07T15:47:48;18.95;;;12.40;;
62572;SDS011;48626;51.678;5.806;2024-03-07T15:50:15;17.80;;;12.00;;
62572;SDS011;48626;51.678;5.806;2024-03-07T15:52:43;19.95;;;12.68;;
62572;SDS011;48626;51.678;5.806;2024-03-07T15:55:10;17.75;;;11.25;;
62572;SDS011;48626;51.678;5.806;2024-03-07T15:57:47;17.90;;;11.85;;
62572;SDS011;48626;51.678;5.806;2024-03-07T16:00:17;20.70;;;12.05;;
62572;SDS011;48626;51.678;5.806;2024-03-07T16:02:53;17.95;;;11.32;;
62572;SDS011;48626;51.678;5.806;2024-03-07T16:05:29;17.97;;;10.87;;
62572;SDS011;48626;51.678;5.806;2024-03-07T16:07:59;18.92;;;11.25;;
62572;SDS011;48626;51.678;5.806;2024-03-07T16:10:28;19.17;;;10.65;;
62572;SDS011;48626;51.678;5.806;2024-03-07T16:13:01;17.83;;;11.07;;
62572;SDS011;48626;51.678;5.806;2024-03-07T16:15:37;15.82;;;10.57;;
62572;SDS011;48626;51.678;5.806;2024-03-07T16:18:03;18.53;;;11.20;;
62572;SDS011;48626;51.678;5.806;2024-03-07T16:20:31;22.10;;;10.82;;
62572;SDS011;48626;51.678;5.806;2024-03-07T16:23:00;20.23;;;10.50;;
62572;SDS011;48626;51.678;5.806;2024-03-07T16:25:30;14.77;;;10.57;;
62572;SDS011;48626;51.678;5.806;2024-03-07T16:27:59;20.00;;;10.97;;
62572;SDS011;48626;51.678;5.806;2024-03-07T16:30:26;18.05;;;10.50;;
62572;SDS011;48626;51.678;5.806;2024-03-07T16:32:54;18.17;;;10.77;;
62572;SDS011;48626;51.678;5.806;2024-03-07T16:35:28;18.35;;;10.02;;
62572;SDS011;48626;51.678;5.806;2024-03-07T16:37:58;17.08;;;10.30;;
62572;SDS011;48626;51.678;5.806;2024-03-07T16:40:25;17.58;;;9.95;;
62572;SDS011;48626;51.678;5.806;2024-03-07T16:42:53;16.65;;;10.40;;
62572;SDS011;48626;51.678;5.806;2024-03-07T16:45:22;17.48;;;10.52;;
62572;SDS011;48626;51.678;5.806;2024-03-07T16:47:49;17.73;;;10.45;;
62572;SDS011;48626;51.678;5.806;2024-03-07T16:50:16;16.50;;;10.48;;
62572;SDS011;48626;51.678;5.806;2024-03-07T16:52:46;15.77;;;10.27;;
62572;SDS011;48626;51.678;5.806;2024-03-07T16:55:13;18.33;;;10.85;;
62572;SDS011;48626;51.678;5.806;2024-03-07T16:57:42;17.42;;;10.43;;
62572;SDS011;48626;51.678;5.806;2024-03-07T17:00:15;17.10;;;10.77;;
62572;SDS011;48626;51.678;5.806;2024-03-07T17:02:58;17.92;;;10.60;;
62572;SDS011;48626;51.678;5.806;2024-03-07T17:05:25;17.52;;;10.48;;
62572;SDS011;48626;51.678;5.806;2024-03-07T17:07:52;19.33;;;10.35;;
62572;SDS011;48626;51.678;5.806;2024-03-07T17:10:18;16.67;;;10.18;;
62572;SDS011;48626;51.678;5.806;2024-03-07T17:12:47;21.15;;;10.20;;
62572;SDS011;48626;51.678;5.806;2024-03-07T17:15:18;16.33;;;9.70;;
62572;SDS011;48626;51.678;5.806;2024-03-07T17:17:45;19.13;;;9.98;;
62572;SDS011;48626;51.678;5.806;2024-03-07T17:20:15;17.00;;;10.32;;
62572;SDS011;48626;51.678;5.806;2024-03-07T17:22:45;19.77;;;10.13;;
62572;SDS011;48626;51.678;5.806;2024-03-07T17:25:12;21.48;;;10.50;;
62572;SDS011;48626;51.678;5.806;2024-03-07T17:27:41;16.38;;;9.45;;
62572;SDS011;48626;51.678;5.806;2024-03-07T17:30:13;17.33;;;9.88;;
62572;SDS011;48626;51.678;5.806;2024-03-07T17:32:39;19.40;;;10.60;;
62572;SDS011;48626;51.678;5.806;2024-03-07T17:35:05;24.70;;;10.32;;
62572;SDS011;48626;51.678;5.806;2024-03-07T17:40:02;17.30;;;10.10;;
62572;SDS011;48626;51.678;5.806;2024-03-07T17:42:28;18.95;;;10.32;;
62572;SDS011;48626;51.678;5.806;2024-03-07T17:44:55;20.75;;;11.52;;
62572;SDS011;48626;51.678;5.806;2024-03-07T17:47:21;23.00;;;11.75;;
62572;SDS011;48626;51.678;5.806;2024-03-07T17:49:47;18.45;;;11.10;;
62572;SDS011;48626;51.678;5.806;2024-03-07T17:52:15;19.55;;;10.93;;
62572;SDS011;48626;51.678;5.806;2024-03-07T17:54:42;21.63;;;11.73;;